createdAt,value
2022-12-16T00:02:42.742Z,22.23
2022-12-16T00:06:44.663Z,21.30
2022-12-16T00:10:55.214Z,21.57
2022-12-16T00:14:56.950Z,18.97
2022-12-16T00:18:58.745Z,20.43
2022-12-16T00:23:00.588Z,20.33
2022-12-16T00:27:02.838Z,20.73
2022-12-16T00:31:05.102Z,20.80
2022-12-16T00:35:07.142Z,20.30
2022-12-16T00:39:09.417Z,19.40
2022-12-16T00:43:11.281Z,21.77
2022-12-16T00:47:13.479Z,21.57
2022-12-16T00:51:15.243Z,21.23
2022-12-16T00:55:17.378Z,21.53
2022-12-16T00:59:22.042Z,21.27
2022-12-16T01:03:23.962Z,18.53
2022-12-16T01:07:25.810Z,21.60
2022-12-16T01:11:27.577Z,21.93
2022-12-16T01:15:29.400Z,22.10
2022-12-16T01:19:31.528Z,21.17
2022-12-16T01:23:34.103Z,22.70
2022-12-16T01:27:36.252Z,23.80
2022-12-16T01:31:38.327Z,21.57
2022-12-16T01:35:56.312Z,21.70
2022-12-16T01:39:58.340Z,20.87
2022-12-16T01:44:14.891Z,21.13
2022-12-16T01:48:43.938Z,21.57
2022-12-16T01:52:52.947Z,21.50
2022-12-16T01:57:07.348Z,22.20
2022-12-16T02:01:09.182Z,21.30
2022-12-16T02:05:20.465Z,21.93
2022-12-16T02:09:22.327Z,22.13
2022-12-16T02:13:44.404Z,21.03
2022-12-16T02:18:05.829Z,21.73
2022-12-16T02:22:50.527Z,21.70
2022-12-16T02:27:05.398Z,23.50
2022-12-16T02:31:33.501Z,22.80
2022-12-16T02:36:11.809Z,20.80
2022-12-16T02:40:46.267Z,21.37
2022-12-16T02:45:08.692Z,21.33
2022-12-16T02:49:13.420Z,20.53
2022-12-16T02:53:15.425Z,20.40
2022-12-16T02:57:59.195Z,22.87
2022-12-16T03:02:57.524Z,22.50
2022-12-16T03:07:05.873Z,21.47
2022-12-16T03:11:14.847Z,21.57
2022-12-16T03:15:25.897Z,21.00
2022-12-16T03:19:34.814Z,22.10
2022-12-16T03:24:01.653Z,21.33
2022-12-16T03:28:33.959Z,20.37
2022-12-16T03:32:48.698Z,19.40
2022-12-16T03:36:53.911Z,20.27
2022-12-16T03:40:55.651Z,20.53
2022-12-16T03:44:57.399Z,19.10
2022-12-16T03:48:59.177Z,20.20
2022-12-16T03:53:01.725Z,16.37
2022-12-16T03:57:03.707Z,16.70
2022-12-16T04:01:09.477Z,16.20
2022-12-16T04:05:11.408Z,16.33
2022-12-16T04:09:13.384Z,16.37
2022-12-16T04:13:34.243Z,15.67
2022-12-16T04:17:55.055Z,13.53
2022-12-16T04:22:15.297Z,15.23
2022-12-16T04:26:17.063Z,15.97
2022-12-16T04:30:20.031Z,14.80
2022-12-16T04:34:29.388Z,14.17
2022-12-16T04:38:50.030Z,15.07
2022-12-16T04:43:10.163Z,15.47
2022-12-16T04:47:30.268Z,14.30
2022-12-16T04:51:50.350Z,14.13
2022-12-16T04:56:10.718Z,15.10
2022-12-16T05:00:31.985Z,13.87
2022-12-16T05:04:52.058Z,14.07
2022-12-16T05:09:12.456Z,15.90
2022-12-16T05:13:49.336Z,13.87
2022-12-16T05:18:12.063Z,14.63
2022-12-16T05:22:32.161Z,14.70
2022-12-16T05:26:52.954Z,14.13
2022-12-16T05:31:13.440Z,13.87
2022-12-16T05:35:34.116Z,15.27
2022-12-16T05:39:54.259Z,14.60
2022-12-16T05:44:14.777Z,15.33
2022-12-16T05:48:35.213Z,16.13
2022-12-16T05:52:55.792Z,16.17
2022-12-16T05:57:16.328Z,15.63
2022-12-16T06:01:36.618Z,14.90
2022-12-16T06:05:57.343Z,15.93
2022-12-16T06:10:17.749Z,15.73
2022-12-16T06:14:38.001Z,15.13
2022-12-16T06:18:58.330Z,15.90
2022-12-16T06:23:22.529Z,17.60
2022-12-16T06:27:45.745Z,15.83
2022-12-16T06:32:06.160Z,15.47
2022-12-16T06:36:26.802Z,16.23
2022-12-16T06:40:47.238Z,16.13
2022-12-16T06:45:07.512Z,16.13
2022-12-16T06:49:27.620Z,16.17
2022-12-16T06:53:48.124Z,17.30
2022-12-16T06:58:15.697Z,17.27
2022-12-16T07:02:36.533Z,17.50
2022-12-16T07:06:57.225Z,16.70
2022-12-16T07:11:17.745Z,17.57
2022-12-16T07:15:38.157Z,19.60
2022-12-16T07:20:06.152Z,18.67
2022-12-16T07:24:29.968Z,18.17
2022-12-16T07:28:50.192Z,20.20
2022-12-16T07:33:13.640Z,18.40
2022-12-16T07:37:37.378Z,19.37
2022-12-16T07:41:58.258Z,20.37
2022-12-16T07:46:18.782Z,18.97
2022-12-16T07:50:39.487Z,19.50
2022-12-16T07:55:01.459Z,20.17
2022-12-16T07:59:22.020Z,19.07
2022-12-16T08:03:42.423Z,21.13
2022-12-16T08:08:02.539Z,20.73
2022-12-16T08:12:23.073Z,21.67
2022-12-16T08:16:43.477Z,20.60
2022-12-16T08:21:04.201Z,22.23
2022-12-16T08:25:27.699Z,21.43
2022-12-16T08:29:47.956Z,22.37
2022-12-16T08:34:08.333Z,22.33
2022-12-16T08:38:28.563Z,23.03
2022-12-16T08:42:49.539Z,22.03
2022-12-16T08:47:09.913Z,22.87
2022-12-16T08:51:30.620Z,22.03
2022-12-16T08:55:51.134Z,21.03
2022-12-16T09:00:16.094Z,21.83
2022-12-16T09:04:36.200Z,22.67
2022-12-16T09:08:56.785Z,20.73
2022-12-16T09:13:31.701Z,22.73
2022-12-16T09:17:52.373Z,23.23
2022-12-16T09:22:13.306Z,23.53
2022-12-16T09:26:33.831Z,21.50
2022-12-16T09:30:54.358Z,21.40
2022-12-16T09:35:16.021Z,22.53
2022-12-16T09:39:36.476Z,22.50
2022-12-16T09:44:40.973Z,23.03
2022-12-16T09:49:09.867Z,21.13
2022-12-16T09:53:38.027Z,21.73
2022-12-16T09:57:58.189Z,20.47
2022-12-16T10:02:19.090Z,20.83
2022-12-16T10:07:03.525Z,19.83
2022-12-16T10:11:32.621Z,20.97
2022-12-16T10:16:17.014Z,21.60
2022-12-16T10:21:00.142Z,21.50
2022-12-16T10:25:36.752Z,22.93
2022-12-16T10:30:00.871Z,21.97
2022-12-16T10:34:21.339Z,24.03
2022-12-16T10:38:44.760Z,23.80
2022-12-16T10:43:24.326Z,22.57
2022-12-16T10:47:44.702Z,21.80
2022-12-16T10:52:08.917Z,23.67
2022-12-16T10:57:16.454Z,22.90
2022-12-16T11:01:42.562Z,23.57
2022-12-16T11:06:03.405Z,23.53
2022-12-16T11:11:03.251Z,22.37
2022-12-16T11:15:47.381Z,24.40
2022-12-16T11:20:08.820Z,23.77
2022-12-16T11:24:37.545Z,22.07
2022-12-16T11:29:00.386Z,23.23
2022-12-16T11:33:43.212Z,23.90
2022-12-16T11:38:03.702Z,23.43
2022-12-16T11:42:25.000Z,24.27
2022-12-16T11:46:46.562Z,24.13
2022-12-16T11:51:13.490Z,23.23
2022-12-16T11:56:05.400Z,23.57
2022-12-16T12:00:23.146Z,24.40
2022-12-16T12:04:43.592Z,23.03
2022-12-16T12:09:29.393Z,24.03
2022-12-16T12:14:05.364Z,23.30
2022-12-16T12:19:00.779Z,25.07
2022-12-16T12:23:26.523Z,22.63
2022-12-16T12:27:57.640Z,23.23
2022-12-16T12:32:51.912Z,23.07
2022-12-16T12:37:38.812Z,24.97
2022-12-16T12:42:30.141Z,23.23
2022-12-16T12:47:13.742Z,23.83
2022-12-16T12:52:29.591Z,21.80
2022-12-16T12:57:11.135Z,22.63
2022-12-16T13:01:31.283Z,23.37
2022-12-16T13:05:52.692Z,23.43
2022-12-16T13:10:44.235Z,23.40
2022-12-16T13:15:12.733Z,22.47
2022-12-16T13:19:48.205Z,23.67
2022-12-16T13:24:08.578Z,22.83
2022-12-16T13:28:43.512Z,23.80
2022-12-16T13:33:17.730Z,23.93
2022-12-16T13:37:44.365Z,22.43
2022-12-16T13:42:07.444Z,23.80
2022-12-16T13:46:33.740Z,24.33
2022-12-16T13:51:23.488Z,23.73
2022-12-16T13:56:04.436Z,24.50
2022-12-16T14:00:38.400Z,24.30
2022-12-16T14:05:03.841Z,21.50
2022-12-16T14:09:24.261Z,23.87
2022-12-16T14:14:03.236Z,22.40
2022-12-16T14:18:43.519Z,25.20
2022-12-16T14:23:57.736Z,23.07
2022-12-16T14:28:19.036Z,22.37
2022-12-16T14:32:45.706Z,23.80
2022-12-16T14:37:13.775Z,26.30
2022-12-16T14:41:40.178Z,24.53
2022-12-16T14:46:00.346Z,23.83
2022-12-16T14:50:20.863Z,23.90
2022-12-16T14:54:58.248Z,24.57
2022-12-16T14:59:35.255Z,22.67
2022-12-16T15:03:59.311Z,23.97
2022-12-16T15:08:19.904Z,24.03
2022-12-16T15:12:42.925Z,24.90
2022-12-16T15:17:03.584Z,24.83
2022-12-16T15:21:25.387Z,23.63
2022-12-16T15:25:45.908Z,24.60
2022-12-16T15:30:06.207Z,23.90
2022-12-16T15:35:06.020Z,24.63
2022-12-16T15:39:50.629Z,24.57
2022-12-16T15:44:10.991Z,25.03
2022-12-16T15:48:48.415Z,24.47
2022-12-16T15:53:29.231Z,32.37
2022-12-16T15:57:53.978Z,33.37
2022-12-16T16:02:14.762Z,32.30
2022-12-16T16:06:43.704Z,34.90
2022-12-16T16:11:05.702Z,33.23
2022-12-16T16:15:31.386Z,32.87
2022-12-16T16:19:51.968Z,32.60
2022-12-16T16:24:12.247Z,33.23
2022-12-16T16:28:32.976Z,33.60
2022-12-16T16:32:55.348Z,32.43
2022-12-16T16:37:16.380Z,32.57
2022-12-16T16:41:38.120Z,31.40
2022-12-16T16:45:58.569Z,32.77
2022-12-16T16:50:19.629Z,32.27
2022-12-16T16:54:40.307Z,31.80
2022-12-16T16:59:01.065Z,32.77
2022-12-16T17:03:21.582Z,31.03
2022-12-16T17:07:42.172Z,31.57
2022-12-16T17:12:02.745Z,31.93
2022-12-16T17:16:23.694Z,32.70
2022-12-16T17:20:44.143Z,31.53
2022-12-16T17:25:15.300Z,31.07
2022-12-16T17:29:42.840Z,30.87
2022-12-16T17:34:05.621Z,32.43
2022-12-16T17:38:27.784Z,33.73
2022-12-16T17:42:50.438Z,32.60
2022-12-16T17:47:10.671Z,30.77
2022-12-16T17:51:31.295Z,31.37
2022-12-16T17:55:52.808Z,32.10
2022-12-16T18:00:13.105Z,31.20
2022-12-16T18:04:34.385Z,30.00
2022-12-16T18:08:54.630Z,23.67
2022-12-16T18:13:14.999Z,23.23
2022-12-16T18:17:35.664Z,24.77
2022-12-16T18:21:55.970Z,21.83
2022-12-16T18:26:18.635Z,23.27
2022-12-16T18:30:39.477Z,23.93
2022-12-16T18:34:59.956Z,24.57
2022-12-16T18:39:20.240Z,23.23
2022-12-16T18:43:43.148Z,24.93
2022-12-16T18:48:03.260Z,24.57
2022-12-16T18:52:27.009Z,23.80
2022-12-16T18:56:47.391Z,23.90
2022-12-16T19:01:24.868Z,22.80
2022-12-16T19:05:45.410Z,24.37
2022-12-16T19:10:06.120Z,24.60
2022-12-16T19:14:26.384Z,23.70
2022-12-16T19:18:46.802Z,24.27
2022-12-16T19:23:10.489Z,25.20
2022-12-16T19:27:33.909Z,22.27
2022-12-16T19:31:54.185Z,24.20
2022-12-16T19:36:16.410Z,23.77
2022-12-16T19:40:59.257Z,23.43
2022-12-16T19:45:19.678Z,23.00
2022-12-16T19:49:44.157Z,22.87
2022-12-16T19:54:05.329Z,24.53
2022-12-16T19:58:25.861Z,23.63
2022-12-16T20:02:46.603Z,23.23
2022-12-16T20:07:07.240Z,23.80
2022-12-16T20:11:28.148Z,24.80
2022-12-16T20:15:48.312Z,23.93
2022-12-16T20:20:08.328Z,23.23
2022-12-16T20:24:33.115Z,23.47
2022-12-16T20:28:53.410Z,24.77
2022-12-16T20:33:23.137Z,25.10
2022-12-16T20:37:43.748Z,24.97
2022-12-16T20:42:04.524Z,22.97
2022-12-16T20:46:24.859Z,24.70
2022-12-16T20:50:45.681Z,27.23
2022-12-16T20:55:06.321Z,24.50
2022-12-16T20:59:26.692Z,23.50
2022-12-16T21:03:47.479Z,23.80
2022-12-16T21:08:09.407Z,24.10
2022-12-16T21:12:29.808Z,22.63
2022-12-16T21:16:51.631Z,23.87
2022-12-16T21:21:12.980Z,24.03
2022-12-16T21:25:33.797Z,24.13
2022-12-16T21:29:54.132Z,23.40
2022-12-16T21:34:16.673Z,23.07
2022-12-16T21:38:37.061Z,22.40
2022-12-16T21:42:57.607Z,23.50
2022-12-16T21:47:18.097Z,23.90
2022-12-16T21:51:38.724Z,22.47
2022-12-16T21:55:59.045Z,22.63
2022-12-16T22:00:19.394Z,23.80
2022-12-16T22:04:39.594Z,22.00
2022-12-16T22:09:00.942Z,22.90
2022-12-16T22:13:21.317Z,23.30
2022-12-16T22:17:42.109Z,22.93
2022-12-16T22:22:02.790Z,22.90
2022-12-16T22:26:23.005Z,21.83
2022-12-16T22:30:43.798Z,22.77
2022-12-16T22:35:04.598Z,22.17
2022-12-16T22:39:27.410Z,23.00
2022-12-16T22:43:48.685Z,21.03
2022-12-16T22:48:08.728Z,22.50
2022-12-16T22:52:29.768Z,22.80
2022-12-16T22:56:49.879Z,21.43
2022-12-16T23:01:10.567Z,21.77
2022-12-16T23:05:31.002Z,21.83
2022-12-16T23:09:53.200Z,20.83
2022-12-16T23:14:13.479Z,20.53
2022-12-16T23:18:35.060Z,23.20
2022-12-16T23:23:01.581Z,21.43
2022-12-16T23:27:21.782Z,22.67
2022-12-16T23:31:41.975Z,21.83
2022-12-16T23:36:02.389Z,21.27
2022-12-16T23:40:23.412Z,21.80
2022-12-16T23:44:44.073Z,22.07
2022-12-16T23:49:22.469Z,22.03
2022-12-16T23:53:45.875Z,21.03
2022-12-16T23:58:06.455Z,22.10
